Terminal Aerodrome Forecast
Issued by NWS

Home | Current Version | Previous Version | Text Only | Print | Product List | Glossary On
Versions: 1 2 3 4 5 6 7 8 9 10 11 12 13 14 15 16 17 18 19 20 21 22 23 24 25 26 27 28 29 30 31 32 33 34 35 36 37 38 39 40 41 42
000
FTUS45 KSLC 220536
TAFOGD
TAF
KOGD 220536Z 2206/2306 17009KT P6SM SCT100 BKN130
     FM221500 17009KT P6SM VCSH SCT080 BKN100
     FM222000 34010KT P6SM -SHRA BKN050 OVC080
     FM230100 VRB05KT 5SM RA BR BKN040 OVC060=

USA.gov is the U.S. government's official web portal to all federal, state and local government web resources and services.